Island Lookout — WDF6311 — position and weather

sailwx.info

Track history (hours):
 
Tides and Currents Weather Stations Pressure Air Temp Water Temp Dewpoint Dewpoint Depression Visibility Wind Speed Wind Dir Waves Ship Positions

Island Lookout

Owner: Stevens Towing Company Inc., Yonges Island, SC. More information available from US FCC via Universal Licensing System and Coast Guard Vessel Documentation Center.

Last reported at 2016-Aug-28 04:32 UTC. Time now 2016-Aug-29 18:06 UTC.
Position N 36°01' W 076°41'.

Length 22 m; draft 2.9 m.

Type: Towing. MMSI: 367472930.

Date/timePositionNaut miles runAvg speedWind from/ knotsBaromVisibWave heightAir tempDewpointWater temp
2016-Aug-28 04:32N 36°01' W 076°41'47 2.7
2016-Aug-27 11:06N 36°43' W 076°14'1 0.1
2016-Aug-27 00:16N 36°44' W 076°16'2 3.1
2016-Aug-26 23:33N 36°45' W 076°18'2 1.7
2016-Aug-26 22:33N 36°47' W 076°18'0 0.0
2016-Aug-26 21:33N 36°47' W 076°18'0 0.0
2016-Aug-26 20:33N 36°47' W 076°18'4 4.1
2016-Aug-26 19:33N 36°51' W 076°18'140 6.1
2016-Aug-25 20:32N 39°11' W 076°27'6 6.1
2016-Aug-25 19:30N 39°13' W 076°34'1 1.1
2016-Aug-25 18:33N 39°12' W 076°35'0 0.0
2016-Aug-25 16:18N 39°12' W 076°35'0 0.1
2016-Aug-25 15:27N 39°12' W 076°35'1 1.5
2016-Aug-25 14:30N 39°14' W 076°34'0 0.1
2016-Aug-25 13:33N 39°13' W 076°34'1 0.9
2016-Aug-25 12:33N 39°13' W 076°35'4 3.6
2016-Aug-25 11:31N 39°16' W 076°35'1 0.7
2016-Aug-25 10:33N 39°17' W 076°36'0 0.0
2016-Aug-25 09:33N 39°17' W 076°36'0 0.0
2016-Aug-25 08:32N 39°17' W 076°36'0 0.0
2016-Aug-25 07:29N 39°17' W 076°36'0 0.0
2016-Aug-25 06:26N 39°17' W 076°36'0 0.0
2016-Aug-25 04:33N 39°17' W 076°36'0 0.0
2016-Aug-25 03:30N 39°17' W 076°36'0 0.0
2016-Aug-25 02:32N 39°17' W 076°36'0 0.0
2016-Aug-25 01:32N 39°17' W 076°36'0 0.0
2016-Aug-25 00:32N 39°17' W 076°36'0 0.0
2016-Aug-24 23:28N 39°17' W 076°36'3 2.9
2016-Aug-24 22:31N 39°15' W 076°33'2 1.6
2016-Aug-24 21:32N 39°13' W 076°34'7 6.7
2016-Aug-24 20:33N 39°11' W 076°26'7 6.6
2016-Aug-24 19:31N 39°04' W 076°24'131 6.5
2016-Aug-23 23:28N 36°53' W 076°20'6 6.7
2016-Aug-23 22:33N 36°48' W 076°18'4 3.7
2016-Aug-23 21:31N 36°44' W 076°17'2 2.1
2016-Aug-23 20:33N 36°43' W 076°15'0 0.0
2016-Aug-23 19:33N 36°43' W 076°15'0 0.0
2016-Aug-23 18:33N 36°43' W 076°15'0 0.0
2016-Aug-23 17:33N 36°43' W 076°15'  
2016-Aug-19 11:07N 36°43' W 076°14'1 0.3
2016-Aug-19 08:21N 36°43' W 076°15'3 3.3
2016-Aug-19 07:33N 36°45' W 076°18'3 3.1
2016-Aug-19 06:30N 36°48' W 076°17'4 4.0
2016-Aug-19 05:33N 36°52' W 076°19'133 5.8
2016-Aug-18 06:31N 39°05' W 076°21'7 6.7
2016-Aug-18 05:32N 39°11' W 076°17'7 7.0
2016-Aug-18 04:34N 39°17' W 076°14'  
Track history (hours):
 
Tides and Currents Weather Stations Pressure Air Temp Water Temp Dewpoint Dewpoint Depression Visibility Wind Speed Wind Dir Waves Ship Positions

Island Lookout

Owner: Stevens Towing Company Inc., Yonges Island, SC. More information available from US FCC via Universal Licensing System and Coast Guard Vessel Documentation Center.

Last reported at 2016-Aug-28 04:32 UTC. Time now 2016-Aug-29 18:06 UTC.
Position N 36°01' W 076°41'.

Length 22 m; draft 2.9 m.

Type: Towing. MMSI: 367472930.

Date/timePositionNaut miles runAvg speedWind from/ knotsBaromVisibWave heightAir tempDewpointWater temp
2016-Aug-28 04:32N 36°01' W 076°41'47 2.7
2016-Aug-27 11:06N 36°43' W 076°14'1 0.1
2016-Aug-27 00:16N 36°44' W 076°16'2 3.1
2016-Aug-26 23:33N 36°45' W 076°18'2 1.7
2016-Aug-26 22:33N 36°47' W 076°18'0 0.0
2016-Aug-26 21:33N 36°47' W 076°18'0 0.0
2016-Aug-26 20:33N 36°47' W 076°18'4 4.1
2016-Aug-26 19:33N 36°51' W 076°18'140 6.1
2016-Aug-25 20:32N 39°11' W 076°27'6 6.1
2016-Aug-25 19:30N 39°13' W 076°34'1 1.1
2016-Aug-25 18:33N 39°12' W 076°35'0 0.0
2016-Aug-25 16:18N 39°12' W 076°35'0 0.1
2016-Aug-25 15:27N 39°12' W 076°35'1 1.5
2016-Aug-25 14:30N 39°14' W 076°34'0 0.1
2016-Aug-25 13:33N 39°13' W 076°34'1 0.9
2016-Aug-25 12:33N 39°13' W 076°35'4 3.6
2016-Aug-25 11:31N 39°16' W 076°35'1 0.7
2016-Aug-25 10:33N 39°17' W 076°36'0 0.0
2016-Aug-25 09:33N 39°17' W 076°36'0 0.0
2016-Aug-25 08:32N 39°17' W 076°36'0 0.0
2016-Aug-25 07:29N 39°17' W 076°36'0 0.0
2016-Aug-25 06:26N 39°17' W 076°36'0 0.0
2016-Aug-25 04:33N 39°17' W 076°36'0 0.0
2016-Aug-25 03:30N 39°17' W 076°36'0 0.0
2016-Aug-25 02:32N 39°17' W 076°36'0 0.0
2016-Aug-25 01:32N 39°17' W 076°36'0 0.0
2016-Aug-25 00:32N 39°17' W 076°36'0 0.0
2016-Aug-24 23:28N 39°17' W 076°36'3 2.9
2016-Aug-24 22:31N 39°15' W 076°33'2 1.6
2016-Aug-24 21:32N 39°13' W 076°34'7 6.7
2016-Aug-24 20:33N 39°11' W 076°26'7 6.6
2016-Aug-24 19:31N 39°04' W 076°24'131 6.5
2016-Aug-23 23:28N 36°53' W 076°20'6 6.7
2016-Aug-23 22:33N 36°48' W 076°18'4 3.7
2016-Aug-23 21:31N 36°44' W 076°17'2 2.1
2016-Aug-23 20:33N 36°43' W 076°15'0 0.0
2016-Aug-23 19:33N 36°43' W 076°15'0 0.0
2016-Aug-23 18:33N 36°43' W 076°15'0 0.0
2016-Aug-23 17:33N 36°43' W 076°15'  
2016-Aug-19 11:07N 36°43' W 076°14'1 0.3
2016-Aug-19 08:21N 36°43' W 076°15'3 3.3
2016-Aug-19 07:33N 36°45' W 076°18'3 3.1
2016-Aug-19 06:30N 36°48' W 076°17'4 4.0
2016-Aug-19 05:33N 36°52' W 076°19'133 5.8
2016-Aug-18 06:31N 39°05' W 076°21'7 6.7
2016-Aug-18 05:32N 39°11' W 076°17'7 7.0
2016-Aug-18 04:34N 39°17' W 076°14'  

Dump ship's entire track history